Terminal Aerodrome Forecast
Issued by NWS

Home | Current Version | Previous Version | Text Only | Print | Product List | Glossary On
Versions: 1 2 3 4 5 6 7 8 9 10 11 12 13 14 15 16 17 18 19 20 21 22 23 24 25 26 27 28 29 30 31 32 33 34 35 36 37 38 39 40 41 42
000
FTUS44 KHGX 161140
TAFCXO
TAF
KCXO 161140Z 1612/1712 17006KT 5SM BR VCSH FEW020 BKN025 OVC050
     FM161300 23010KT 6SM -SHRA BR SCT015 BKN045
     FM161800 32013G23KT P6SM -SHRA VCSH SCT008 BKN015 BKN035
     FM162000 33012G22KT P6SM SCT025 BKN050
     FM170000 33012G22KT P6SM FEW025 SCT250
     FM170600 34014G20KT P6SM SKC=

USA.gov is the U.S. government's official web portal to all federal, state and local government web resources and services.